sensor_id;sensor_type;location;lat;lon;timestamp;P1;durP1;ratioP1;P2;durP2;ratioP2
7334;SDS011;3708;42.632;23.378;2023-04-25T00:00:20;5.00;;;4.07;;
7334;SDS011;3708;42.632;23.378;2023-04-25T00:02:47;4.27;;;3.73;;
7334;SDS011;3708;42.632;23.378;2023-04-25T00:05:14;4.30;;;3.90;;
7334;SDS011;3708;42.632;23.378;2023-04-25T00:07:41;4.97;;;4.27;;
7334;SDS011;3708;42.632;23.378;2023-04-25T00:10:10;5.57;;;4.07;;
7334;SDS011;3708;42.632;23.378;2023-04-25T00:12:37;5.03;;;4.53;;
7334;SDS011;3708;42.632;23.378;2023-04-25T00:15:04;4.70;;;4.20;;
7334;SDS011;3708;42.632;23.378;2023-04-25T00:17:32;6.77;;;4.27;;
7334;SDS011;3708;42.632;23.378;2023-04-25T00:19:59;5.50;;;4.20;;
7334;SDS011;3708;42.632;23.378;2023-04-25T00:22:30;6.73;;;3.97;;
7334;SDS011;3708;42.632;23.378;2023-04-25T00:24:56;5.03;;;4.27;;
7334;SDS011;3708;42.632;23.378;2023-04-25T00:27:26;4.37;;;3.97;;
7334;SDS011;3708;42.632;23.378;2023-04-25T00:29:53;7.57;;;4.07;;
7334;SDS011;3708;42.632;23.378;2023-04-25T00:32:20;6.53;;;4.43;;
7334;SDS011;3708;42.632;23.378;2023-04-25T00:34:46;5.80;;;4.70;;
7334;SDS011;3708;42.632;23.378;2023-04-25T00:37:13;5.00;;;4.50;;
7334;SDS011;3708;42.632;23.378;2023-04-25T00:39:40;6.80;;;5.10;;
7334;SDS011;3708;42.632;23.378;2023-04-25T00:42:07;7.80;;;5.27;;
7334;SDS011;3708;42.632;23.378;2023-04-25T00:44:36;7.87;;;5.40;;
7334;SDS011;3708;42.632;23.378;2023-04-25T00:47:03;7.17;;;6.47;;
7334;SDS011;3708;42.632;23.378;2023-04-25T00:49:31;7.23;;;6.53;;
7334;SDS011;3708;42.632;23.378;2023-04-25T00:51:58;7.67;;;6.93;;
7334;SDS011;3708;42.632;23.378;2023-04-25T00:54:25;7.27;;;6.47;;
7334;SDS011;3708;42.632;23.378;2023-04-25T00:56:52;6.97;;;6.20;;
7334;SDS011;3708;42.632;23.378;2023-04-25T00:59:19;6.20;;;5.60;;
7334;SDS011;3708;42.632;23.378;2023-04-25T01:01:48;6.27;;;5.67;;
7334;SDS011;3708;42.632;23.378;2023-04-25T01:04:14;7.90;;;5.77;;
7334;SDS011;3708;42.632;23.378;2023-04-25T01:06:41;7.47;;;6.23;;
7334;SDS011;3708;42.632;23.378;2023-04-25T01:09:08;7.33;;;5.90;;
7334;SDS011;3708;42.632;23.378;2023-04-25T01:11:36;7.27;;;5.73;;
7334;SDS011;3708;42.632;23.378;2023-04-25T01:14:05;7.47;;;5.80;;
7334;SDS011;3708;42.632;23.378;2023-04-25T01:16:32;6.73;;;5.47;;
7334;SDS011;3708;42.632;23.378;2023-04-25T01:19:00;10.43;;;6.17;;
7334;SDS011;3708;42.632;23.378;2023-04-25T01:21:29;9.97;;;6.93;;
7334;SDS011;3708;42.632;23.378;2023-04-25T01:23:55;6.33;;;5.67;;
7334;SDS011;3708;42.632;23.378;2023-04-25T01:26:23;7.17;;;6.13;;
7334;SDS011;3708;42.632;23.378;2023-04-25T01:28:51;7.20;;;6.20;;
7334;SDS011;3708;42.632;23.378;2023-04-25T01:31:18;7.50;;;6.70;;
7334;SDS011;3708;42.632;23.378;2023-04-25T01:33:45;6.50;;;5.67;;
7334;SDS011;3708;42.632;23.378;2023-04-25T01:36:12;6.30;;;4.60;;
7334;SDS011;3708;42.632;23.378;2023-04-25T01:38:42;4.53;;;4.13;;
7334;SDS011;3708;42.632;23.378;2023-04-25T01:41:11;4.67;;;4.20;;
7334;SDS011;3708;42.632;23.378;2023-04-25T01:43:38;4.83;;;4.30;;
7334;SDS011;3708;42.632;23.378;2023-04-25T01:46:05;5.33;;;4.83;;
7334;SDS011;3708;42.632;23.378;2023-04-25T01:48:32;4.70;;;4.20;;
7334;SDS011;3708;42.632;23.378;2023-04-25T01:50:59;6.57;;;4.27;;
7334;SDS011;3708;42.632;23.378;2023-04-25T01:53:26;5.37;;;4.53;;
7334;SDS011;3708;42.632;23.378;2023-04-25T01:55:54;5.67;;;4.43;;
7334;SDS011;3708;42.632;23.378;2023-04-25T01:58:21;6.00;;;4.87;;
7334;SDS011;3708;42.632;23.378;2023-04-25T02:00:48;6.77;;;5.80;;
7334;SDS011;3708;42.632;23.378;2023-04-25T02:03:14;5.87;;;4.70;;
7334;SDS011;3708;42.632;23.378;2023-04-25T02:05:41;6.23;;;5.63;;
7334;SDS011;3708;42.632;23.378;2023-04-25T02:08:08;6.83;;;5.83;;
7334;SDS011;3708;42.632;23.378;2023-04-25T02:10:35;7.27;;;5.60;;
7334;SDS011;3708;42.632;23.378;2023-04-25T02:13:03;9.50;;;6.70;;
7334;SDS011;3708;42.632;23.378;2023-04-25T02:15:31;6.93;;;5.63;;
7334;SDS011;3708;42.632;23.378;2023-04-25T02:17:57;8.07;;;6.30;;
7334;SDS011;3708;42.632;23.378;2023-04-25T02:20:25;6.87;;;6.03;;
7334;SDS011;3708;42.632;23.378;2023-04-25T02:22:53;6.70;;;6.00;;
7334;SDS011;3708;42.632;23.378;2023-04-25T02:25:19;7.00;;;6.30;;
7334;SDS011;3708;42.632;23.378;2023-04-25T02:27:46;7.30;;;5.47;;
7334;SDS011;3708;42.632;23.378;2023-04-25T02:30:15;8.13;;;5.77;;
7334;SDS011;3708;42.632;23.378;2023-04-25T02:32:42;8.93;;;5.83;;
7334;SDS011;3708;42.632;23.378;2023-04-25T02:35:09;6.20;;;5.60;;
7334;SDS011;3708;42.632;23.378;2023-04-25T02:37:36;6.07;;;5.47;;
7334;SDS011;3708;42.632;23.378;2023-04-25T02:40:05;7.40;;;5.80;;
7334;SDS011;3708;42.632;23.378;2023-04-25T02:42:33;6.20;;;4.90;;
7334;SDS011;3708;42.632;23.378;2023-04-25T02:44:59;6.73;;;4.67;;
7334;SDS011;3708;42.632;23.378;2023-04-25T02:47:28;6.77;;;5.47;;
7334;SDS011;3708;42.632;23.378;2023-04-25T02:49:55;6.87;;;6.17;;
7334;SDS011;3708;42.632;23.378;2023-04-25T02:52:21;6.80;;;6.10;;
7334;SDS011;3708;42.632;23.378;2023-04-25T02:54:48;7.27;;;6.07;;
7334;SDS011;3708;42.632;23.378;2023-04-25T02:57:15;6.30;;;5.63;;
7334;SDS011;3708;42.632;23.378;2023-04-25T02:59:42;6.57;;;5.97;;
7334;SDS011;3708;42.632;23.378;2023-04-25T03:02:09;7.50;;;6.13;;
7334;SDS011;3708;42.632;23.378;2023-04-25T03:04:37;8.00;;;6.20;;
7334;SDS011;3708;42.632;23.378;2023-04-25T03:07:04;7.23;;;6.30;;
7334;SDS011;3708;42.632;23.378;2023-04-25T03:09:31;9.17;;;6.47;;
7334;SDS011;3708;42.632;23.378;2023-04-25T03:11:57;9.73;;;6.00;;
7334;SDS011;3708;42.632;23.378;2023-04-25T03:14:24;7.07;;;6.37;;
7334;SDS011;3708;42.632;23.378;2023-04-25T03:16:51;7.13;;;6.03;;
7334;SDS011;3708;42.632;23.378;2023-04-25T03:19:18;6.77;;;6.07;;
7334;SDS011;3708;42.632;23.378;2023-04-25T03:21:46;7.83;;;6.47;;
7334;SDS011;3708;42.632;23.378;2023-04-25T03:24:13;7.03;;;5.90;;
7334;SDS011;3708;42.632;23.378;2023-04-25T03:26:40;8.13;;;7.30;;
7334;SDS011;3708;42.632;23.378;2023-04-25T03:29:07;8.77;;;7.40;;
7334;SDS011;3708;42.632;23.378;2023-04-25T03:31:34;8.00;;;7.20;;
7334;SDS011;3708;42.632;23.378;2023-04-25T03:34:01;9.50;;;7.10;;
7334;SDS011;3708;42.632;23.378;2023-04-25T03:36:27;8.97;;;6.50;;
7334;SDS011;3708;42.632;23.378;2023-04-25T03:38:56;8.20;;;7.30;;
7334;SDS011;3708;42.632;23.378;2023-04-25T03:41:22;8.07;;;6.70;;
7334;SDS011;3708;42.632;23.378;2023-04-25T03:43:50;8.83;;;7.70;;
7334;SDS011;3708;42.632;23.378;2023-04-25T03:46:16;8.87;;;7.20;;
7334;SDS011;3708;42.632;23.378;2023-04-25T03:48:43;11.93;;;9.70;;
7334;SDS011;3708;42.632;23.378;2023-04-25T03:51:10;10.10;;;8.00;;
7334;SDS011;3708;42.632;23.378;2023-04-25T03:53:37;9.73;;;8.30;;
7334;SDS011;3708;42.632;23.378;2023-04-25T03:56:06;10.37;;;8.20;;
7334;SDS011;3708;42.632;23.378;2023-04-25T03:58:33;10.73;;;8.10;;
7334;SDS011;3708;42.632;23.378;2023-04-25T04:00:59;10.67;;;8.17;;
7334;SDS011;3708;42.632;23.378;2023-04-25T04:03:28;10.53;;;9.10;;
7334;SDS011;3708;42.632;23.378;2023-04-25T04:05:54;10.90;;;9.60;;
7334;SDS011;3708;42.632;23.378;2023-04-25T04:08:21;11.73;;;9.30;;
7334;SDS011;3708;42.632;23.378;2023-04-25T04:10:48;11.83;;;9.90;;
7334;SDS011;3708;42.632;23.378;2023-04-25T04:13:16;10.50;;;9.40;;
7334;SDS011;3708;42.632;23.378;2023-04-25T04:15:43;10.77;;;9.00;;
7334;SDS011;3708;42.632;23.378;2023-04-25T04:18:10;11.30;;;9.20;;
7334;SDS011;3708;42.632;23.378;2023-04-25T04:20:37;12.13;;;10.33;;
7334;SDS011;3708;42.632;23.378;2023-04-25T04:23:03;14.40;;;10.57;;
7334;SDS011;3708;42.632;23.378;2023-04-25T04:25:30;14.83;;;10.40;;
7334;SDS011;3708;42.632;23.378;2023-04-25T04:27:57;17.63;;;11.17;;
7334;SDS011;3708;42.632;23.378;2023-04-25T04:30:27;12.37;;;11.07;;
7334;SDS011;3708;42.632;23.378;2023-04-25T04:32:56;15.33;;;11.13;;
7334;SDS011;3708;42.632;23.378;2023-04-25T04:35:23;14.10;;;11.43;;
7334;SDS011;3708;42.632;23.378;2023-04-25T04:37:50;17.37;;;12.93;;
7334;SDS011;3708;42.632;23.378;2023-04-25T04:40:17;15.77;;;12.53;;
7334;SDS011;3708;42.632;23.378;2023-04-25T04:42:44;16.73;;;12.57;;
7334;SDS011;3708;42.632;23.378;2023-04-25T04:45:11;18.03;;;14.63;;
7334;SDS011;3708;42.632;23.378;2023-04-25T04:47:40;17.87;;;12.97;;
7334;SDS011;3708;42.632;23.378;2023-04-25T04:50:07;21.83;;;16.13;;
7334;SDS011;3708;42.632;23.378;2023-04-25T04:52:34;25.27;;;16.80;;
7334;SDS011;3708;42.632;23.378;2023-04-25T04:55:02;23.53;;;15.77;;
7334;SDS011;3708;42.632;23.378;2023-04-25T04:57:30;16.90;;;13.60;;
7334;SDS011;3708;42.632;23.378;2023-04-25T04:59:58;16.33;;;12.13;;
7334;SDS011;3708;42.632;23.378;2023-04-25T05:02:25;14.43;;;12.57;;
7334;SDS011;3708;42.632;23.378;2023-04-25T05:04:53;17.00;;;13.17;;
7334;SDS011;3708;42.632;23.378;2023-04-25T05:07:20;16.07;;;11.80;;
7334;SDS011;3708;42.632;23.378;2023-04-25T05:09:46;11.03;;;9.57;;
7334;SDS011;3708;42.632;23.378;2023-04-25T05:12:13;15.30;;;10.40;;
7334;SDS011;3708;42.632;23.378;2023-04-25T05:14:40;11.97;;;9.60;;
7334;SDS011;3708;42.632;23.378;2023-04-25T05:17:07;12.33;;;10.27;;
7334;SDS011;3708;42.632;23.378;2023-04-25T05:19:33;14.57;;;11.13;;
7334;SDS011;3708;42.632;23.378;2023-04-25T05:22:02;12.53;;;10.10;;
7334;SDS011;3708;42.632;23.378;2023-04-25T05:24:29;9.80;;;8.80;;
7334;SDS011;3708;42.632;23.378;2023-04-25T05:26:56;8.90;;;8.00;;
7334;SDS011;3708;42.632;23.378;2023-04-25T05:29:23;9.23;;;8.17;;
7334;SDS011;3708;42.632;23.378;2023-04-25T05:31:50;13.47;;;9.80;;
7334;SDS011;3708;42.632;23.378;2023-04-25T05:34:18;10.17;;;8.23;;
7334;SDS011;3708;42.632;23.378;2023-04-25T05:36:45;13.30;;;8.17;;
7334;SDS011;3708;42.632;23.378;2023-04-25T05:39:15;10.30;;;8.00;;
7334;SDS011;3708;42.632;23.378;2023-04-25T05:41:42;8.67;;;7.77;;
7334;SDS011;3708;42.632;23.378;2023-04-25T05:44:09;11.20;;;8.90;;
7334;SDS011;3708;42.632;23.378;2023-04-25T05:46:36;11.23;;;8.90;;
7334;SDS011;3708;42.632;23.378;2023-04-25T05:49:03;9.00;;;8.10;;
7334;SDS011;3708;42.632;23.378;2023-04-25T05:51:30;7.67;;;6.87;;
7334;SDS011;3708;42.632;23.378;2023-04-25T05:53:56;9.57;;;8.20;;
7334;SDS011;3708;42.632;23.378;2023-04-25T05:56:24;11.87;;;7.80;;
7334;SDS011;3708;42.632;23.378;2023-04-25T05:58:51;9.17;;;7.20;;
7334;SDS011;3708;42.632;23.378;2023-04-25T06:01:18;8.03;;;7.23;;
7334;SDS011;3708;42.632;23.378;2023-04-25T06:03:45;8.17;;;7.30;;
7334;SDS011;3708;42.632;23.378;2023-04-25T06:06:12;7.63;;;6.30;;
7334;SDS011;3708;42.632;23.378;2023-04-25T06:08:39;11.10;;;6.90;;
7334;SDS011;3708;42.632;23.378;2023-04-25T06:11:06;8.13;;;6.50;;
7334;SDS011;3708;42.632;23.378;2023-04-25T06:13:34;8.27;;;6.77;;
7334;SDS011;3708;42.632;23.378;2023-04-25T06:16:01;12.50;;;10.93;;
7334;SDS011;3708;42.632;23.378;2023-04-25T06:18:28;15.33;;;11.50;;
7334;SDS011;3708;42.632;23.378;2023-04-25T06:20:55;11.47;;;10.33;;
7334;SDS011;3708;42.632;23.378;2023-04-25T06:23:22;13.30;;;9.20;;
7334;SDS011;3708;42.632;23.378;2023-04-25T06:25:49;10.40;;;9.40;;
7334;SDS011;3708;42.632;23.378;2023-04-25T06:28:15;11.43;;;9.30;;
7334;SDS011;3708;42.632;23.378;2023-04-25T06:30:44;11.73;;;9.57;;
7334;SDS011;3708;42.632;23.378;2023-04-25T06:33:10;13.10;;;10.30;;
7334;SDS011;3708;42.632;23.378;2023-04-25T06:35:37;9.83;;;8.80;;
7334;SDS011;3708;42.632;23.378;2023-04-25T06:38:04;10.10;;;8.00;;
7334;SDS011;3708;42.632;23.378;2023-04-25T06:40:31;12.13;;;8.47;;
7334;SDS011;3708;42.632;23.378;2023-04-25T06:42:57;8.37;;;7.07;;
7334;SDS011;3708;42.632;23.378;2023-04-25T06:45:24;12.67;;;8.77;;
7334;SDS011;3708;42.632;23.378;2023-04-25T06:47:52;13.03;;;7.07;;
7334;SDS011;3708;42.632;23.378;2023-04-25T06:50:19;9.77;;;6.50;;
7334;SDS011;3708;42.632;23.378;2023-04-25T06:52:46;7.93;;;6.60;;
7334;SDS011;3708;42.632;23.378;2023-04-25T06:55:13;7.47;;;6.67;;
7334;SDS011;3708;42.632;23.378;2023-04-25T06:57:40;7.40;;;6.67;;
7334;SDS011;3708;42.632;23.378;2023-04-25T07:00:07;7.67;;;6.97;;
7334;SDS011;3708;42.632;23.378;2023-04-25T07:02:34;10.67;;;6.93;;
7334;SDS011;3708;42.632;23.378;2023-04-25T07:05:03;7.67;;;6.80;;
7334;SDS011;3708;42.632;23.378;2023-04-25T07:07:30;8.70;;;7.30;;
7334;SDS011;3708;42.632;23.378;2023-04-25T07:09:57;8.93;;;6.93;;
7334;SDS011;3708;42.632;23.378;2023-04-25T07:12:24;8.30;;;7.10;;
7334;SDS011;3708;42.632;23.378;2023-04-25T07:14:51;14.47;;;7.87;;
7334;SDS011;3708;42.632;23.378;2023-04-25T07:17:17;9.43;;;6.90;;
7334;SDS011;3708;42.632;23.378;2023-04-25T07:19:44;14.53;;;7.00;;
7334;SDS011;3708;42.632;23.378;2023-04-25T07:22:12;7.20;;;6.07;;
7334;SDS011;3708;42.632;23.378;2023-04-25T07:24:39;8.73;;;6.10;;
7334;SDS011;3708;42.632;23.378;2023-04-25T07:27:06;13.80;;;6.90;;
7334;SDS011;3708;42.632;23.378;2023-04-25T07:29:33;11.67;;;6.70;;
7334;SDS011;3708;42.632;23.378;2023-04-25T07:32:02;7.90;;;5.93;;
7334;SDS011;3708;42.632;23.378;2023-04-25T07:34:29;6.47;;;5.87;;
7334;SDS011;3708;42.632;23.378;2023-04-25T07:36:57;10.27;;;6.20;;
7334;SDS011;3708;42.632;23.378;2023-04-25T07:39:26;11.20;;;6.77;;
7334;SDS011;3708;42.632;23.378;2023-04-25T07:41:53;8.17;;;5.77;;
7334;SDS011;3708;42.632;23.378;2023-04-25T07:44:19;8.50;;;6.03;;
7334;SDS011;3708;42.632;23.378;2023-04-25T07:46:46;10.70;;;6.13;;
7334;SDS011;3708;42.632;23.378;2023-04-25T07:49:13;9.40;;;6.43;;
7334;SDS011;3708;42.632;23.378;2023-04-25T07:51:40;11.17;;;6.50;;
7334;SDS011;3708;42.632;23.378;2023-04-25T07:54:08;8.57;;;6.03;;
7334;SDS011;3708;42.632;23.378;2023-04-25T07:56:36;6.33;;;5.53;;
7334;SDS011;3708;42.632;23.378;2023-04-25T07:59:03;8.93;;;5.87;;
7334;SDS011;3708;42.632;23.378;2023-04-25T08:01:30;7.37;;;6.00;;
7334;SDS011;3708;42.632;23.378;2023-04-25T08:03:57;8.53;;;6.00;;
7334;SDS011;3708;42.632;23.378;2023-04-25T08:06:23;11.40;;;6.80;;
7334;SDS011;3708;42.632;23.378;2023-04-25T08:08:50;7.70;;;6.40;;
7334;SDS011;3708;42.632;23.378;2023-04-25T08:11:17;7.67;;;5.50;;
7334;SDS011;3708;42.632;23.378;2023-04-25T08:13:45;7.57;;;6.10;;
7334;SDS011;3708;42.632;23.378;2023-04-25T08:16:12;8.17;;;6.07;;
7334;SDS011;3708;42.632;23.378;2023-04-25T08:18:39;11.27;;;6.20;;
7334;SDS011;3708;42.632;23.378;2023-04-25T08:21:06;8.40;;;5.37;;
7334;SDS011;3708;42.632;23.378;2023-04-25T08:23:33;8.00;;;5.13;;
7334;SDS011;3708;42.632;23.378;2023-04-25T08:26:00;10.17;;;5.70;;
7334;SDS011;3708;42.632;23.378;2023-04-25T08:28:27;7.13;;;5.00;;
7334;SDS011;3708;42.632;23.378;2023-04-25T08:30:55;9.13;;;4.20;;
7334;SDS011;3708;42.632;23.378;2023-04-25T08:33:22;7.60;;;5.00;;
7334;SDS011;3708;42.632;23.378;2023-04-25T08:35:49;7.90;;;5.20;;
7334;SDS011;3708;42.632;23.378;2023-04-25T08:38:16;5.20;;;4.70;;
7334;SDS011;3708;42.632;23.378;2023-04-25T08:40:43;5.80;;;4.57;;
7334;SDS011;3708;42.632;23.378;2023-04-25T08:43:11;6.57;;;4.27;;
7334;SDS011;3708;42.632;23.378;2023-04-25T08:45:40;8.23;;;5.60;;
7334;SDS011;3708;42.632;23.378;2023-04-25T08:48:10;8.03;;;4.10;;
7334;SDS011;3708;42.632;23.378;2023-04-25T08:50:38;9.13;;;3.97;;
7334;SDS011;3708;42.632;23.378;2023-04-25T08:53:06;8.67;;;3.70;;
7334;SDS011;3708;42.632;23.378;2023-04-25T08:55:38;5.50;;;3.53;;
7334;SDS011;3708;42.632;23.378;2023-04-25T08:58:08;5.10;;;2.87;;
7334;SDS011;3708;42.632;23.378;2023-04-25T09:00:37;8.10;;;3.87;;
7334;SDS011;3708;42.632;23.378;2023-04-25T09:03:04;6.03;;;3.03;;
7334;SDS011;3708;42.632;23.378;2023-04-25T09:05:33;4.23;;;3.33;;
7334;SDS011;3708;42.632;23.378;2023-04-25T09:08:00;4.83;;;2.77;;
7334;SDS011;3708;42.632;23.378;2023-04-25T09:10:27;4.03;;;3.00;;
7334;SDS011;3708;42.632;23.378;2023-04-25T09:13:01;5.10;;;3.27;;
7334;SDS011;3708;42.632;23.378;2023-04-25T09:15:29;9.43;;;5.03;;
7334;SDS011;3708;42.632;23.378;2023-04-25T09:17:56;6.33;;;5.10;;
7334;SDS011;3708;42.632;23.378;2023-04-25T09:20:24;7.57;;;5.00;;
7334;SDS011;3708;42.632;23.378;2023-04-25T09:23:02;12.67;;;4.70;;
7334;SDS011;3708;42.632;23.378;2023-04-25T09:25:33;9.10;;;5.07;;
7334;SDS011;3708;42.632;23.378;2023-04-25T09:28:03;8.73;;;4.60;;
7334;SDS011;3708;42.632;23.378;2023-04-25T09:30:32;7.43;;;4.53;;
7334;SDS011;3708;42.632;23.378;2023-04-25T09:33:03;7.00;;;4.50;;
7334;SDS011;3708;42.632;23.378;2023-04-25T09:35:34;5.70;;;4.03;;
7334;SDS011;3708;42.632;23.378;2023-04-25T09:38:08;5.43;;;4.93;;
7334;SDS011;3708;42.632;23.378;2023-04-25T09:40:38;7.30;;;4.53;;
7334;SDS011;3708;42.632;23.378;2023-04-25T09:43:08;4.77;;;4.17;;
7334;SDS011;3708;42.632;23.378;2023-04-25T09:45:40;4.90;;;4.40;;
7334;SDS011;3708;42.632;23.378;2023-04-25T09:48:11;6.37;;;5.23;;
7334;SDS011;3708;42.632;23.378;2023-04-25T09:50:38;5.97;;;4.00;;
7334;SDS011;3708;42.632;23.378;2023-04-25T09:53:05;7.13;;;5.30;;
7334;SDS011;3708;42.632;23.378;2023-04-25T09:55:34;5.00;;;4.50;;
7334;SDS011;3708;42.632;23.378;2023-04-25T09:58:03;6.37;;;4.80;;
7334;SDS011;3708;42.632;23.378;2023-04-25T10:00:31;5.77;;;4.63;;
7334;SDS011;3708;42.632;23.378;2023-04-25T10:02:59;5.97;;;4.30;;
7334;SDS011;3708;42.632;23.378;2023-04-25T10:05:30;5.57;;;4.27;;
7334;SDS011;3708;42.632;23.378;2023-04-25T10:07:58;5.90;;;4.80;;
7334;SDS011;3708;42.632;23.378;2023-04-25T10:10:30;8.57;;;4.80;;
7334;SDS011;3708;42.632;23.378;2023-04-25T10:13:02;6.20;;;5.40;;
7334;SDS011;3708;42.632;23.378;2023-04-25T10:15:31;6.10;;;4.40;;
7334;SDS011;3708;42.632;23.378;2023-04-25T10:18:00;8.97;;;4.30;;
7334;SDS011;3708;42.632;23.378;2023-04-25T10:20:28;5.27;;;4.73;;
7334;SDS011;3708;42.632;23.378;2023-04-25T10:22:57;5.03;;;4.30;;
7334;SDS011;3708;42.632;23.378;2023-04-25T10:25:31;2.27;;;1.97;;
7334;SDS011;3708;42.632;23.378;2023-04-25T10:27:59;4.30;;;2.13;;
7334;SDS011;3708;42.632;23.378;2023-04-25T10:30:27;1.70;;;1.47;;
7334;SDS011;3708;42.632;23.378;2023-04-25T10:32:54;4.80;;;1.50;;
7334;SDS011;3708;42.632;23.378;2023-04-25T10:35:24;3.43;;;1.60;;
7334;SDS011;3708;42.632;23.378;2023-04-25T10:38:02;2.10;;;1.50;;
7334;SDS011;3708;42.632;23.378;2023-04-25T10:40:31;2.70;;;1.43;;
7334;SDS011;3708;42.632;23.378;2023-04-25T10:45:59;1.60;;;1.40;;
7334;SDS011;3708;42.632;23.378;2023-04-25T10:48:26;1.60;;;1.50;;
7334;SDS011;3708;42.632;23.378;2023-04-25T10:51:06;1.90;;;1.50;;
7334;SDS011;3708;42.632;23.378;2023-04-25T10:53:33;1.93;;;1.40;;
7334;SDS011;3708;42.632;23.378;2023-04-25T10:56:01;3.77;;;1.70;;
7334;SDS011;3708;42.632;23.378;2023-04-25T10:58:36;5.03;;;3.10;;
7334;SDS011;3708;42.632;23.378;2023-04-25T11:01:02;8.13;;;4.40;;
7334;SDS011;3708;42.632;23.378;2023-04-25T11:03:29;7.17;;;3.83;;
7334;SDS011;3708;42.632;23.378;2023-04-25T11:05:57;5.50;;;3.50;;
7334;SDS011;3708;42.632;23.378;2023-04-25T11:08:29;4.20;;;3.13;;
7334;SDS011;3708;42.632;23.378;2023-04-25T11:11:06;3.73;;;2.77;;
7334;SDS011;3708;42.632;23.378;2023-04-25T11:13:34;4.03;;;2.97;;
7334;SDS011;3708;42.632;23.378;2023-04-25T11:16:01;4.03;;;2.50;;
7334;SDS011;3708;42.632;23.378;2023-04-25T11:18:28;2.73;;;1.47;;
7334;SDS011;3708;42.632;23.378;2023-04-25T11:20:54;4.23;;;1.50;;
7334;SDS011;3708;42.632;23.378;2023-04-25T11:23:21;3.43;;;1.80;;
7334;SDS011;3708;42.632;23.378;2023-04-25T11:25:48;3.07;;;2.30;;
7334;SDS011;3708;42.632;23.378;2023-04-25T11:28:21;5.43;;;2.53;;
7334;SDS011;3708;42.632;23.378;2023-04-25T11:30:49;3.20;;;2.10;;
7334;SDS011;3708;42.632;23.378;2023-04-25T11:33:16;6.43;;;2.20;;
7334;SDS011;3708;42.632;23.378;2023-04-25T11:35:43;2.50;;;1.90;;
7334;SDS011;3708;42.632;23.378;2023-04-25T11:38:10;4.90;;;2.27;;
7334;SDS011;3708;42.632;23.378;2023-04-25T11:40:36;5.93;;;3.23;;
7334;SDS011;3708;42.632;23.378;2023-04-25T11:43:03;7.17;;;3.60;;
7334;SDS011;3708;42.632;23.378;2023-04-25T11:45:32;16.63;;;3.20;;
7334;SDS011;3708;42.632;23.378;2023-04-25T11:47:59;3.83;;;2.53;;
7334;SDS011;3708;42.632;23.378;2023-04-25T11:50:28;4.27;;;2.83;;
7334;SDS011;3708;42.632;23.378;2023-04-25T11:52:56;4.50;;;2.77;;
7334;SDS011;3708;42.632;23.378;2023-04-25T11:55:23;5.47;;;2.93;;
7334;SDS011;3708;42.632;23.378;2023-04-25T11:57:50;5.50;;;2.60;;
7334;SDS011;3708;42.632;23.378;2023-04-25T12:00:17;2.93;;;1.70;;
7334;SDS011;3708;42.632;23.378;2023-04-25T12:02:47;2.23;;;1.60;;
7334;SDS011;3708;42.632;23.378;2023-04-25T12:05:17;4.30;;;1.73;;
7334;SDS011;3708;42.632;23.378;2023-04-25T12:07:45;3.23;;;1.13;;
7334;SDS011;3708;42.632;23.378;2023-04-25T12:10:13;1.27;;;1.10;;
7334;SDS011;3708;42.632;23.378;2023-04-25T12:12:42;1.40;;;1.23;;
7334;SDS011;3708;42.632;23.378;2023-04-25T12:15:10;2.30;;;1.40;;
7334;SDS011;3708;42.632;23.378;2023-04-25T12:17:40;3.30;;;1.60;;
7334;SDS011;3708;42.632;23.378;2023-04-25T12:20:10;5.67;;;1.90;;
7334;SDS011;3708;42.632;23.378;2023-04-25T12:22:40;3.03;;;1.57;;
7334;SDS011;3708;42.632;23.378;2023-04-25T12:25:09;2.03;;;1.70;;
7334;SDS011;3708;42.632;23.378;2023-04-25T12:27:37;1.80;;;1.40;;
7334;SDS011;3708;42.632;23.378;2023-04-25T12:30:05;2.07;;;1.40;;
7334;SDS011;3708;42.632;23.378;2023-04-25T12:32:33;3.87;;;1.70;;
7334;SDS011;3708;42.632;23.378;2023-04-25T12:35:00;1.90;;;1.60;;
7334;SDS011;3708;42.632;23.378;2023-04-25T12:37:29;4.33;;;1.60;;
7334;SDS011;3708;42.632;23.378;2023-04-25T12:39:56;2.37;;;1.53;;
7334;SDS011;3708;42.632;23.378;2023-04-25T12:42:23;1.80;;;1.30;;
7334;SDS011;3708;42.632;23.378;2023-04-25T12:44:50;2.33;;;1.90;;
7334;SDS011;3708;42.632;23.378;2023-04-25T12:47:17;3.37;;;1.73;;
7334;SDS011;3708;42.632;23.378;2023-04-25T12:49:43;2.00;;;1.23;;
7334;SDS011;3708;42.632;23.378;2023-04-25T12:52:10;3.90;;;1.70;;
7334;SDS011;3708;42.632;23.378;2023-04-25T12:54:38;1.80;;;1.60;;
7334;SDS011;3708;42.632;23.378;2023-04-25T12:57:05;2.40;;;1.60;;
7334;SDS011;3708;42.632;23.378;2023-04-25T12:59:32;7.53;;;1.97;;
7334;SDS011;3708;42.632;23.378;2023-04-25T13:01:59;2.40;;;1.53;;
7334;SDS011;3708;42.632;23.378;2023-04-25T13:04:27;2.63;;;1.57;;
7334;SDS011;3708;42.632;23.378;2023-04-25T13:06:54;1.50;;;1.40;;
7334;SDS011;3708;42.632;23.378;2023-04-25T13:09:21;2.30;;;1.63;;
7334;SDS011;3708;42.632;23.378;2023-04-25T13:11:49;3.23;;;1.47;;
7334;SDS011;3708;42.632;23.378;2023-04-25T13:14:16;1.70;;;1.43;;
7334;SDS011;3708;42.632;23.378;2023-04-25T13:16:43;3.37;;;1.40;;
7334;SDS011;3708;42.632;23.378;2023-04-25T13:19:10;3.33;;;1.70;;
7334;SDS011;3708;42.632;23.378;2023-04-25T13:21:45;2.77;;;1.70;;
7334;SDS011;3708;42.632;23.378;2023-04-25T13:24:11;2.40;;;1.50;;
7334;SDS011;3708;42.632;23.378;2023-04-25T13:26:38;2.70;;;1.70;;
7334;SDS011;3708;42.632;23.378;2023-04-25T13:29:06;4.00;;;1.77;;
7334;SDS011;3708;42.632;23.378;2023-04-25T13:31:34;1.80;;;1.70;;
7334;SDS011;3708;42.632;23.378;2023-04-25T13:34:00;2.27;;;1.90;;
7334;SDS011;3708;42.632;23.378;2023-04-25T13:36:27;2.20;;;1.83;;
7334;SDS011;3708;42.632;23.378;2023-04-25T13:38:54;2.13;;;1.93;;
7334;SDS011;3708;42.632;23.378;2023-04-25T13:41:21;2.73;;;2.20;;
7334;SDS011;3708;42.632;23.378;2023-04-25T13:43:48;2.87;;;2.03;;
7334;SDS011;3708;42.632;23.378;2023-04-25T13:46:16;2.30;;;1.80;;
7334;SDS011;3708;42.632;23.378;2023-04-25T13:48:43;1.50;;;1.40;;
7334;SDS011;3708;42.632;23.378;2023-04-25T13:51:14;2.00;;;1.70;;
7334;SDS011;3708;42.632;23.378;2023-04-25T13:53:42;3.10;;;2.23;;
7334;SDS011;3708;42.632;23.378;2023-04-25T13:56:09;4.43;;;2.13;;
7334;SDS011;3708;42.632;23.378;2023-04-25T13:58:37;2.00;;;1.80;;
7334;SDS011;3708;42.632;23.378;2023-04-25T14:01:04;2.00;;;1.73;;
7334;SDS011;3708;42.632;23.378;2023-04-25T14:03:32;3.50;;;2.10;;
7334;SDS011;3708;42.632;23.378;2023-04-25T14:05:59;2.23;;;1.70;;
7334;SDS011;3708;42.632;23.378;2023-04-25T14:08:26;1.60;;;1.50;;
7334;SDS011;3708;42.632;23.378;2023-04-25T14:10:53;2.00;;;1.80;;
7334;SDS011;3708;42.632;23.378;2023-04-25T14:13:20;1.60;;;1.50;;
7334;SDS011;3708;42.632;23.378;2023-04-25T14:15:48;2.80;;;1.50;;
7334;SDS011;3708;42.632;23.378;2023-04-25T14:18:15;2.07;;;1.77;;
7334;SDS011;3708;42.632;23.378;2023-04-25T14:20:43;2.50;;;1.67;;
7334;SDS011;3708;42.632;23.378;2023-04-25T14:23:10;2.57;;;1.60;;
7334;SDS011;3708;42.632;23.378;2023-04-25T14:25:37;2.53;;;2.00;;
7334;SDS011;3708;42.632;23.378;2023-04-25T14:28:04;3.37;;;1.80;;
7334;SDS011;3708;42.632;23.378;2023-04-25T14:30:31;2.80;;;2.20;;
7334;SDS011;3708;42.632;23.378;2023-04-25T14:32:58;4.07;;;1.97;;
7334;SDS011;3708;42.632;23.378;2023-04-25T14:35:25;4.83;;;1.90;;
7334;SDS011;3708;42.632;23.378;2023-04-25T14:37:53;2.40;;;2.00;;
7334;SDS011;3708;42.632;23.378;2023-04-25T14:40:20;2.07;;;1.80;;
7334;SDS011;3708;42.632;23.378;2023-04-25T14:42:48;2.10;;;1.60;;
7334;SDS011;3708;42.632;23.378;2023-04-25T14:45:15;4.33;;;1.93;;
7334;SDS011;3708;42.632;23.378;2023-04-25T14:47:41;3.80;;;1.87;;
7334;SDS011;3708;42.632;23.378;2023-04-25T14:50:09;3.93;;;2.53;;
7334;SDS011;3708;42.632;23.378;2023-04-25T14:52:36;2.00;;;1.70;;
7334;SDS011;3708;42.632;23.378;2023-04-25T14:55:04;3.33;;;1.90;;
7334;SDS011;3708;42.632;23.378;2023-04-25T14:57:32;3.63;;;2.13;;
7334;SDS011;3708;42.632;23.378;2023-04-25T14:59:59;2.57;;;2.20;;
7334;SDS011;3708;42.632;23.378;2023-04-25T15:02:27;2.60;;;2.20;;